Time;durP1;ratioP1;P1;durP2;ratioP2;P2;SDS_P1;SDS_P2;PMS_P1;PMS_P2;Temp;Humidity;BMP_temperature;BMP_pressure;BME280_temperature;BME280_humidity;BME280_pressure;Samples;Min_cycle;Max_cycle;Signal;HPM_P1;HPM_P2
2021/10/01 00:02:17;;;;;;;4.63;1.73;;;;;;;;;;5014309;28;20908;-46
2021/10/01 00:04:43;;;;;;;3.40;1.67;;;;;;;;;;5016193;28;20428;-45
2021/10/01 00:07:10;;;;;;;4.20;1.90;;;;;;;;;;5032030;28;20513;-48
2021/10/01 00:09:36;;;;;;;5.37;1.60;;;;;;;;;;5032443;28;20468;-46
2021/10/01 00:12:03;;;;;;;9.00;1.60;;;;;;;;;;5032637;28;20764;-46
2021/10/01 00:14:29;;;;;;;2.57;1.63;;;;;;;;;;5023821;28;20451;-46
2021/10/01 00:16:56;;;;;;;4.37;2.00;;;;;;;;;;5013030;28;20939;-47
2021/10/01 00:19:23;;;;;;;2.23;1.60;;;;;;;;;;5012960;28;20455;-46
2021/10/01 00:21:50;;;;;;;2.30;2.03;;;;;;;;;;5013523;28;20407;-45
2021/10/01 00:24:16;;;;;;;2.70;1.60;;;;;;;;;;5012851;28;20478;-48
2021/10/01 00:26:42;;;;;;;3.57;1.97;;;;;;;;;;5012945;28;20494;-45
2021/10/01 00:29:08;;;;;;;2.63;1.80;;;;;;;;;;5012884;28;20412;-45
2021/10/01 00:31:34;;;;;;;6.13;1.70;;;;;;;;;;5014000;28;20424;-50
2021/10/01 00:34:01;;;;;;;4.20;1.83;;;;;;;;;;5012465;28;20485;-45
2021/10/01 00:36:28;;;;;;;2.23;1.53;;;;;;;;;;5013000;28;20891;-47
2021/10/01 00:38:54;;;;;;;2.43;1.70;;;;;;;;;;5012640;28;20451;-46
2021/10/01 00:41:20;;;;;;;10.07;1.90;;;;;;;;;;5012607;28;20421;-46
2021/10/01 00:43:46;;;;;;;3.53;1.80;;;;;;;;;;5013544;28;20447;-45
2021/10/01 00:46:12;;;;;;;2.70;1.80;;;;;;;;;;5012658;28;20399;-46
2021/10/01 00:48:38;;;;;;;2.70;1.63;;;;;;;;;;5012609;28;20409;-46
2021/10/01 00:51:05;;;;;;;5.67;2.17;;;;;;;;;;5012425;28;20762;-46
2021/10/01 00:53:32;;;;;;;2.60;1.60;;;;;;;;;;5012238;28;20842;-45
2021/10/01 00:55:58;;;;;;;2.87;1.57;;;;;;;;;;5012476;28;20478;-45
2021/10/01 00:58:24;;;;;;;4.03;1.60;;;;;;;;;;5012379;28;20450;-45
2021/10/01 01:01:06;;;;;;;2.80;1.23;;;;;;;;;;5012025;28;20399;-45
2021/10/01 01:03:32;;;;;;;3.30;1.30;;;;;;;;;;5011359;28;20797;-49
2021/10/01 01:06:09;;;;;;;1.80;1.27;;;;;;;;;;5011837;28;20477;-48
2021/10/01 01:08:41;;;;;;;3.53;1.60;;;;;;;;;;5013330;28;20426;-46
2021/10/01 01:11:15;;;;;;;4.30;1.73;;;;;;;;;;5012077;28;20407;-46
2021/10/01 01:13:46;;;;;;;7.17;1.37;;;;;;;;;;5012226;28;20427;-49
2021/10/01 01:16:15;;;;;;;1.47;1.20;;;;;;;;;;5011932;28;20934;-45
2021/10/01 01:18:45;;;;;;;3.30;1.73;;;;;;;;;;5012134;28;20443;-47
2021/10/01 01:21:17;;;;;;;3.43;1.57;;;;;;;;;;5011961;28;20464;-49
2021/10/01 01:23:59;;;;;;;3.40;1.57;;;;;;;;;;5011795;28;20424;-45
2021/10/01 01:26:32;;;;;;;1.40;1.30;;;;;;;;;;5012136;28;20926;-46
2021/10/01 01:29:18;;;;;;;4.30;1.70;;;;;;;;;;5012067;28;20395;-46
2021/10/01 01:31:56;;;;;;;1.87;1.40;;;;;;;;;;5011894;28;20399;-46
2021/10/01 01:34:22;;;;;;;3.40;1.40;;;;;;;;;;5011958;28;20434;-49
2021/10/01 01:36:50;;;;;;;5.30;1.57;;;;;;;;;;5012030;28;20403;-46
2021/10/01 01:39:17;;;;;;;2.20;1.50;;;;;;;;;;5014780;28;20474;-46
2021/10/01 01:41:43;;;;;;;3.37;1.50;;;;;;;;;;5031523;28;20410;-46
2021/10/01 01:44:11;;;;;;;5.37;1.53;;;;;;;;;;5031446;28;20433;-46
2021/10/01 01:46:38;;;;;;;2.53;1.67;;;;;;;;;;5031616;28;20781;-47
2021/10/01 01:49:04;;;;;;;2.07;1.27;;;;;;;;;;5031595;28;20434;-46
2021/10/01 01:51:30;;;;;;;3.70;1.70;;;;;;;;;;5031535;28;20925;-47
2021/10/01 01:53:57;;;;;;;4.23;1.47;;;;;;;;;;5031185;28;20501;-45
2021/10/01 01:56:23;;;;;;;1.67;1.33;;;;;;;;;;5031642;28;20418;-46
2021/10/01 01:58:50;;;;;;;5.40;1.90;;;;;;;;;;5031464;28;20454;-46
2021/10/01 02:01:16;;;;;;;1.67;1.40;;;;;;;;;;5031433;28;20406;-45
2021/10/01 02:03:43;;;;;;;2.30;2.10;;;;;;;;;;5031152;28;20415;-47
2021/10/01 02:06:09;;;;;;;2.90;1.30;;;;;;;;;;5031422;28;20400;-47
2021/10/01 02:08:36;;;;;;;3.10;1.60;;;;;;;;;;5026093;28;20415;-48
2021/10/01 02:11:02;;;;;;;3.43;1.67;;;;;;;;;;5011679;28;20457;-46
2021/10/01 02:13:29;;;;;;;4.30;1.97;;;;;;;;;;5011477;28;20451;-46
2021/10/01 02:15:57;;;;;;;2.77;1.37;;;;;;;;;;5011369;28;20426;-46
2021/10/01 02:18:24;;;;;;;3.17;1.97;;;;;;;;;;5011487;28;20596;-46
2021/10/01 02:20:52;;;;;;;2.20;1.47;;;;;;;;;;5011538;28;20516;-47
2021/10/01 02:23:18;;;;;;;5.90;1.63;;;;;;;;;;5011441;28;20903;-48
2021/10/01 02:28:39;;;;;;;2.40;1.80;;;;;;;;;;5012780;28;20399;-46
2021/10/01 02:31:06;;;;;;;2.80;1.30;;;;;;;;;;5015078;28;20391;-46
2021/10/01 02:33:44;;;;;;;8.90;1.70;;;;;;;;;;5014688;28;20903;-47
2021/10/01 02:36:10;;;;;;;7.90;1.47;;;;;;;;;;5014969;28;20410;-46
2021/10/01 02:38:36;;;;;;;1.73;1.40;;;;;;;;;;5015855;28;20447;-46
2021/10/01 02:41:02;;;;;;;5.93;2.10;;;;;;;;;;5014744;28;20395;-46
2021/10/01 02:43:28;;;;;;;3.93;1.87;;;;;;;;;;5013347;28;20942;-46
2021/10/01 02:45:54;;;;;;;4.67;1.37;;;;;;;;;;5014824;28;20396;-46
2021/10/01 02:48:20;;;;;;;1.70;1.60;;;;;;;;;;5014720;28;20878;-48
2021/10/01 02:50:49;;;;;;;5.33;1.50;;;;;;;;;;5014768;28;20407;-46
2021/10/01 02:53:17;;;;;;;2.03;1.37;;;;;;;;;;5017689;28;20442;-45
2021/10/01 02:55:45;;;;;;;2.97;1.77;;;;;;;;;;5033406;28;20731;-45
2021/10/01 02:58:23;;;;;;;3.43;1.90;;;;;;;;;;5034216;28;20446;-46
2021/10/01 03:00:53;;;;;;;6.57;2.43;;;;;;;;;;5034126;28;20901;-45
2021/10/01 03:03:27;;;;;;;3.73;1.50;;;;;;;;;;5033863;28;20416;-46
2021/10/01 03:05:55;;;;;;;3.83;1.30;;;;;;;;;;5033926;28;20403;-46
2021/10/01 03:08:23;;;;;;;1.50;1.30;;;;;;;;;;5034106;28;20406;-46
2021/10/01 03:10:50;;;;;;;2.50;1.70;;;;;;;;;;5034016;28;20434;-47
2021/10/01 03:13:17;;;;;;;4.83;1.63;;;;;;;;;;5033708;28;20429;-45
2021/10/01 03:15:43;;;;;;;6.40;1.93;;;;;;;;;;5033849;28;20430;-46
2021/10/01 03:18:11;;;;;;;2.70;1.40;;;;;;;;;;5033656;28;20480;-46
2021/10/01 03:20:37;;;;;;;4.57;1.60;;;;;;;;;;5033868;28;20399;-46
2021/10/01 03:23:04;;;;;;;2.40;1.40;;;;;;;;;;5033496;28;20501;-45
2021/10/01 03:25:30;;;;;;;5.83;1.80;;;;;;;;;;5034358;28;20398;-50
2021/10/01 03:27:56;;;;;;;2.40;2.20;;;;;;;;;;5032293;28;20402;-50
2021/10/01 03:30:22;;;;;;;3.43;1.40;;;;;;;;;;5030517;28;20760;-50
2021/10/01 03:32:48;;;;;;;4.27;1.40;;;;;;;;;;5033084;28;20997;-48
2021/10/01 03:35:15;;;;;;;2.70;1.60;;;;;;;;;;5033641;28;20756;-50
2021/10/01 03:37:42;;;;;;;2.13;1.67;;;;;;;;;;5033630;28;20424;-49
2021/10/01 03:40:11;;;;;;;2.70;1.70;;;;;;;;;;5032660;28;20442;-50
2021/10/01 03:42:38;;;;;;;3.17;1.60;;;;;;;;;;5033171;28;20449;-49
2021/10/01 03:45:06;;;;;;;1.93;1.83;;;;;;;;;;5033453;28;20406;-48
2021/10/01 03:47:32;;;;;;;1.33;1.23;;;;;;;;;;5033288;28;20406;-49
2021/10/01 03:49:58;;;;;;;5.10;1.83;;;;;;;;;;5033327;28;20908;-49
2021/10/01 03:52:24;;;;;;;1.70;1.40;;;;;;;;;;5033003;28;20398;-48
2021/10/01 03:54:51;;;;;;;1.77;1.50;;;;;;;;;;5032344;28;20421;-49
2021/10/01 03:57:18;;;;;;;1.77;1.60;;;;;;;;;;5033491;28;20807;-50
2021/10/01 03:59:44;;;;;;;2.53;1.70;;;;;;;;;;5033072;28;20453;-49
2021/10/01 04:02:10;;;;;;;1.50;1.40;;;;;;;;;;5032719;28;20399;-49
2021/10/01 04:04:36;;;;;;;5.83;2.07;;;;;;;;;;5033028;28;20774;-49
2021/10/01 04:07:03;;;;;;;2.13;1.60;;;;;;;;;;5033041;28;20399;-49
2021/10/01 04:09:30;;;;;;;4.67;1.47;;;;;;;;;;5033019;28;20949;-50
2021/10/01 04:11:57;;;;;;;2.30;1.43;;;;;;;;;;5032703;28;20410;-49
2021/10/01 04:14:24;;;;;;;3.97;1.50;;;;;;;;;;5032824;28;20996;-50
2021/10/01 04:16:50;;;;;;;5.37;1.87;;;;;;;;;;5030840;28;20485;-49
2021/10/01 04:19:16;;;;;;;2.30;1.50;;;;;;;;;;5032834;28;20481;-49
2021/10/01 04:21:43;;;;;;;1.93;1.37;;;;;;;;;;5032567;28;20398;-51
2021/10/01 04:24:09;;;;;;;5.97;1.70;;;;;;;;;;5032530;28;20446;-51
2021/10/01 04:26:35;;;;;;;2.60;1.30;;;;;;;;;;5032740;28;20846;-49
2021/10/01 04:29:01;;;;;;;1.63;1.30;;;;;;;;;;5032624;28;20490;-50
2021/10/01 04:31:28;;;;;;;3.00;1.50;;;;;;;;;;5032466;28;20399;-51
2021/10/01 04:33:54;;;;;;;4.20;1.63;;;;;;;;;;5032298;28;20450;-48
2021/10/01 04:36:22;;;;;;;3.40;1.53;;;;;;;;;;5032541;28;20399;-50
2021/10/01 04:38:48;;;;;;;1.63;1.50;;;;;;;;;;5032389;28;20495;-50
2021/10/01 04:41:14;;;;;;;3.27;1.47;;;;;;;;;;5030461;28;20431;-50
2021/10/01 04:43:40;;;;;;;2.83;1.63;;;;;;;;;;5032036;28;20422;-50
2021/10/01 04:46:08;;;;;;;3.00;1.53;;;;;;;;;;5032333;28;20881;-49
2021/10/01 04:48:34;;;;;;;2.70;1.50;;;;;;;;;;5032295;28;20410;-49
2021/10/01 04:51:00;;;;;;;1.87;1.60;;;;;;;;;;5031800;28;20414;-50
2021/10/01 04:53:26;;;;;;;1.67;1.40;;;;;;;;;;5032013;28;20432;-49
2021/10/01 04:55:52;;;;;;;2.63;1.80;;;;;;;;;;5032208;28;20501;-48
2021/10/01 04:58:18;;;;;;;2.30;1.50;;;;;;;;;;5032045;28;20472;-49
2021/10/01 05:00:44;;;;;;;3.70;1.80;;;;;;;;;;5032112;28;20755;-48
2021/10/01 05:03:10;;;;;;;2.30;1.67;;;;;;;;;;5031747;28;20429;-48
2021/10/01 05:05:36;;;;;;;6.33;2.00;;;;;;;;;;5032062;28;20434;-49
2021/10/01 05:08:03;;;;;;;1.53;1.23;;;;;;;;;;5031896;28;20492;-49
2021/10/01 05:10:29;;;;;;;3.60;1.57;;;;;;;;;;5032056;28;20460;-49
2021/10/01 05:12:55;;;;;;;2.07;1.40;;;;;;;;;;5029655;28;20818;-48
2021/10/01 05:15:22;;;;;;;3.57;1.43;;;;;;;;;;5031825;28;20444;-48
2021/10/01 05:17:48;;;;;;;2.57;1.40;;;;;;;;;;5031861;28;20451;-49
2021/10/01 05:20:14;;;;;;;2.13;1.50;;;;;;;;;;5031887;28;20924;-50
2021/10/01 05:22:41;;;;;;;2.70;1.40;;;;;;;;;;5031579;28;20426;-49
2021/10/01 05:25:07;;;;;;;6.77;1.80;;;;;;;;;;5031882;28;20397;-49
2021/10/01 05:27:33;;;;;;;3.33;1.40;;;;;;;;;;5032413;28;20459;-45
2021/10/01 05:29:59;;;;;;;1.50;1.30;;;;;;;;;;5031825;28;20406;-45
2021/10/01 05:32:25;;;;;;;1.60;1.50;;;;;;;;;;5031395;28;20394;-44
2021/10/01 05:34:51;;;;;;;2.17;1.67;;;;;;;;;;5031788;28;20394;-45
2021/10/01 05:37:18;;;;;;;4.23;1.40;;;;;;;;;;5031856;28;20794;-45
2021/10/01 05:39:46;;;;;;;1.60;1.50;;;;;;;;;;5031572;28;20454;-45
2021/10/01 05:42:12;;;;;;;4.57;1.70;;;;;;;;;;5030262;28;20900;-45
2021/10/01 05:44:38;;;;;;;2.67;1.67;;;;;;;;;;5031590;28;20489;-45
2021/10/01 05:47:06;;;;;;;1.73;1.37;;;;;;;;;;5031727;28;20407;-45
2021/10/01 05:49:40;;;;;;;2.50;1.37;;;;;;;;;;5030418;28;20914;-45
2021/10/01 05:52:26;;;;;;;1.80;1.67;;;;;;;;;;5031079;28;20398;-45
2021/10/01 05:54:55;;;;;;;4.37;1.80;;;;;;;;;;5029788;28;20398;-47
2021/10/01 05:57:24;;;;;;;3.30;1.50;;;;;;;;;;5031174;28;20405;-44
2021/10/01 05:59:52;;;;;;;2.30;1.90;;;;;;;;;;5031002;28;20458;-44
2021/10/01 06:02:19;;;;;;;1.33;1.23;;;;;;;;;;5029612;28;20434;-45
2021/10/01 06:04:45;;;;;;;3.53;1.80;;;;;;;;;;5033944;28;20398;-46
2021/10/01 06:07:12;;;;;;;4.57;1.73;;;;;;;;;;5034466;28;20410;-46
2021/10/01 06:09:39;;;;;;;4.53;2.50;;;;;;;;;;5034734;28;20493;-46
2021/10/01 06:12:05;;;;;;;5.93;1.80;;;;;;;;;;5032757;28;20457;-47
2021/10/01 06:14:32;;;;;;;3.20;1.57;;;;;;;;;;5034490;28;20491;-46
2021/10/01 06:16:58;;;;;;;2.17;1.90;;;;;;;;;;5034459;28;20482;-45
2021/10/01 06:19:24;;;;;;;2.63;2.00;;;;;;;;;;5034420;28;20548;-45
2021/10/01 06:21:52;;;;;;;1.30;1.20;;;;;;;;;;5033540;28;20553;-45
2021/10/01 06:24:18;;;;;;;10.67;1.80;;;;;;;;;;5034894;28;20422;-45
2021/10/01 06:26:45;;;;;;;7.23;2.00;;;;;;;;;;5034979;28;20410;-45
2021/10/01 06:29:10;;;;;;;3.97;1.50;;;;;;;;;;5034703;28;20415;-45
2021/10/01 06:31:36;;;;;;;1.80;1.40;;;;;;;;;;5034364;28;20413;-47
2021/10/01 06:34:02;;;;;;;6.30;1.80;;;;;;;;;;5032579;28;20467;-46
2021/10/01 06:36:28;;;;;;;3.83;1.60;;;;;;;;;;5033263;28;20411;-49
2021/10/01 06:38:54;;;;;;;2.27;1.60;;;;;;;;;;5032839;28;20458;-49
2021/10/01 06:41:20;;;;;;;2.50;1.20;;;;;;;;;;5033720;28;20396;-52
2021/10/01 06:43:46;;;;;;;4.40;1.50;;;;;;;;;;5033076;28;20443;-45
2021/10/01 06:46:23;;;;;;;3.70;1.40;;;;;;;;;;5034435;28;20409;-46
2021/10/01 06:49:21;;;;;;;6.70;1.60;;;;;;;;;;5034496;28;20473;-46
2021/10/01 08:20:15;;;;;;;2.20;1.33;;;;;;;;;;5031131;28;20469;-47
2021/10/01 08:22:41;;;;;;;8.27;2.60;;;;;;;;;;5028123;28;20446;-50
2021/10/01 08:25:07;;;;;;;3.40;1.20;;;;;;;;;;5032452;28;20417;-44
2021/10/01 08:27:35;;;;;;;7.10;1.47;;;;;;;;;;5032167;28;20402;-45
2021/10/01 08:30:01;;;;;;;2.03;1.30;;;;;;;;;;5032654;28;20747;-45
2021/10/01 08:32:27;;;;;;;3.27;1.20;;;;;;;;;;5032188;28;20495;-45
2021/10/01 08:34:53;;;;;;;1.97;1.40;;;;;;;;;;5032560;28;20442;-45
2021/10/01 08:37:19;;;;;;;4.10;1.67;;;;;;;;;;5032520;28;20474;-45
2021/10/01 08:39:45;;;;;;;2.67;1.47;;;;;;;;;;5032350;28;20443;-45
2021/10/01 08:42:12;;;;;;;2.10;1.40;;;;;;;;;;5032218;28;20891;-46
2021/10/01 08:44:38;;;;;;;2.50;1.30;;;;;;;;;;5022746;28;20437;-46
2021/10/01 08:47:05;;;;;;;7.17;1.53;;;;;;;;;;5012594;28;20382;-46
2021/10/01 08:49:31;;;;;;;1.70;1.10;;;;;;;;;;5012505;28;20376;-47
2021/10/01 08:51:58;;;;;;;6.87;1.80;;;;;;;;;;5012320;28;20875;-46
2021/10/01 08:54:25;;;;;;;3.33;1.47;;;;;;;;;;5012572;28;20829;-46
2021/10/01 08:56:51;;;;;;;4.10;1.40;;;;;;;;;;5012534;28;20411;-46
2021/10/01 08:59:17;;;;;;;1.87;1.30;;;;;;;;;;5012444;28;20427;-46
2021/10/01 09:01:43;;;;;;;2.90;1.60;;;;;;;;;;5012291;28;20404;-46
2021/10/01 09:04:10;;;;;;;3.57;1.07;;;;;;;;;;5012001;28;20432;-45
2021/10/01 09:06:36;;;;;;;6.00;1.50;;;;;;;;;;5026824;28;20526;-46
2021/10/01 09:09:07;;;;;;;2.50;1.23;;;;;;;;;;5031957;28;20492;-48
2021/10/01 09:11:33;;;;;;;2.70;1.40;;;;;;;;;;5032095;28;20905;-46
2021/10/01 09:14:06;;;;;;;1.73;1.10;;;;;;;;;;5031624;28;20429;-46
2021/10/01 09:16:33;;;;;;;3.30;1.63;;;;;;;;;;5031729;28;20464;-46
2021/10/01 09:18:59;;;;;;;3.37;1.57;;;;;;;;;;5030266;28;20512;-48
2021/10/01 09:21:25;;;;;;;1.77;1.37;;;;;;;;;;5031512;28;20436;-46
2021/10/01 09:24:00;;;;;;;3.53;1.33;;;;;;;;;;5030342;28;20790;-47
2021/10/01 09:26:26;;;;;;;4.60;1.30;;;;;;;;;;5031840;28;20412;-45
2021/10/01 09:28:53;;;;;;;1.43;1.27;;;;;;;;;;5031731;28;20467;-46
2021/10/01 09:31:48;;;;;;;3.83;1.27;;;;;;;;;;5031563;28;20752;-45
2021/10/01 09:34:17;;;;;;;5.27;1.50;;;;;;;;;;5029980;28;20439;-45
2021/10/01 09:36:43;;;;;;;4.30;1.67;;;;;;;;;;5031621;28;20808;-45
2021/10/01 09:39:24;;;;;;;4.03;1.50;;;;;;;;;;5035662;28;20985;-45
2021/10/01 09:41:50;;;;;;;2.07;1.50;;;;;;;;;;5035375;28;20422;-48
2021/10/01 09:44:18;;;;;;;4.07;1.60;;;;;;;;;;5035606;28;20464;-48
2021/10/01 09:46:49;;;;;;;1.53;1.30;;;;;;;;;;5035639;28;20431;-45
2021/10/01 09:49:16;;;;;;;1.97;1.10;;;;;;;;;;5035595;28;20405;-48
2021/10/01 09:51:52;;;;;;;6.40;1.63;;;;;;;;;;5035262;28;20405;-45
2021/10/01 09:54:20;;;;;;;1.70;1.40;;;;;;;;;;5038338;28;20436;-49
2021/10/01 09:56:46;;;;;;;4.60;1.47;;;;;;;;;;5035542;28;20414;-49
2021/10/01 09:59:20;;;;;;;2.13;1.37;;;;;;;;;;5035462;28;20457;-49
2021/10/01 10:01:58;;;;;;;1.20;1.10;;;;;;;;;;5035246;28;20410;-49
2021/10/01 10:04:24;;;;;;;4.00;1.60;;;;;;;;;;5035299;28;20432;-50
2021/10/01 10:06:50;;;;;;;7.50;1.47;;;;;;;;;;5035492;28;20398;-50
2021/10/01 10:09:16;;;;;;;3.10;1.43;;;;;;;;;;5034638;28;20429;-50
2021/10/01 10:11:43;;;;;;;3.20;1.47;;;;;;;;;;5034763;28;20445;-49
2021/10/01 10:14:11;;;;;;;1.77;1.50;;;;;;;;;;5035140;28;20434;-50
2021/10/01 10:16:37;;;;;;;3.63;1.27;;;;;;;;;;5035080;28;20937;-49
2021/10/01 10:19:07;;;;;;;2.30;1.10;;;;;;;;;;5035068;28;20457;-48
2021/10/01 10:21:34;;;;;;;3.67;1.43;;;;;;;;;;5034908;28;20402;-47
2021/10/01 10:24:00;;;;;;;1.50;1.27;;;;;;;;;;5035032;28;20419;-50
2021/10/01 10:26:27;;;;;;;8.50;1.50;;;;;;;;;;5034954;28;20959;-48
2021/10/01 10:28:54;;;;;;;2.33;0.93;;;;;;;;;;5035146;28;20407;-50
2021/10/01 10:31:20;;;;;;;6.50;1.60;;;;;;;;;;5033691;28;20954;-48
2021/10/01 10:33:46;;;;;;;1.77;1.40;;;;;;;;;;5033915;28;20498;-48
2021/10/01 10:36:32;;;;;;;2.50;1.10;;;;;;;;;;5034871;28;20434;-50
2021/10/01 10:39:00;;;;;;;2.50;1.40;;;;;;;;;;5034759;28;20452;-50
2021/10/01 10:41:27;;;;;;;2.40;1.43;;;;;;;;;;5034624;28;20404;-49
2021/10/01 10:43:54;;;;;;;5.53;1.53;;;;;;;;;;5034508;28;20421;-49
2021/10/01 10:46:35;;;;;;;1.53;1.20;;;;;;;;;;5034528;28;20394;-50
2021/10/01 10:49:21;;;;;;;3.20;1.10;;;;;;;;;;5033781;28;20471;-49
2021/10/01 10:51:56;;;;;;;3.70;1.37;;;;;;;;;;5032297;28;20774;-49
2021/10/01 10:54:22;;;;;;;2.83;1.20;;;;;;;;;;5034397;28;20437;-49
2021/10/01 10:57:08;;;;;;;1.33;1.20;;;;;;;;;;5034315;28;20413;-48
2021/10/01 10:59:34;;;;;;;3.67;1.40;;;;;;;;;;5034349;28;20487;-50
2021/10/01 11:02:33;;;;;;;6.97;1.57;;;;;;;;;;5033228;28;20918;-50
2021/10/01 11:05:22;;;;;;;4.50;1.37;;;;;;;;;;5034328;28;20410;-48
2021/10/01 11:08:01;;;;;;;1.80;1.13;;;;;;;;;;5034327;28;20397;-50
2021/10/01 11:10:41;;;;;;;2.23;1.10;;;;;;;;;;5034216;28;20399;-48
2021/10/01 11:13:19;;;;;;;2.80;1.27;;;;;;;;;;5032096;28;20456;-47
2021/10/01 11:16:04;;;;;;;7.07;1.37;;;;;;;;;;5034063;28;20451;-49
2021/10/01 11:18:36;;;;;;;3.57;1.43;;;;;;;;;;5034095;28;20899;-47
2021/10/01 11:21:28;;;;;;;2.53;1.73;;;;;;;;;;5033935;28;20951;-51
2021/10/01 11:24:07;;;;;;;3.63;1.30;;;;;;;;;;5033563;28;20429;-50
2021/10/01 11:26:37;;;;;;;5.97;1.50;;;;;;;;;;5034638;28;20416;-51
2021/10/01 11:29:05;;;;;;;2.07;1.30;;;;;;;;;;5033818;28;20448;-51
2021/10/01 11:31:42;;;;;;;4.40;1.20;;;;;;;;;;5033565;28;20417;-49
2021/10/01 11:34:08;;;;;;;2.70;1.33;;;;;;;;;;5031216;28;20478;-51
2021/10/01 11:36:36;;;;;;;1.60;1.20;;;;;;;;;;5033516;28;20934;-50
2021/10/01 11:39:05;;;;;;;3.03;1.17;;;;;;;;;;5033670;28;20839;-50
2021/10/01 11:41:32;;;;;;;1.80;1.23;;;;;;;;;;5033467;28;20483;-51
2021/10/01 11:44:00;;;;;;;2.90;1.30;;;;;;;;;;5033232;28;20440;-49
2021/10/01 11:46:30;;;;;;;2.60;1.20;;;;;;;;;;5033587;28;20391;-47
2021/10/01 11:48:56;;;;;;;2.47;1.40;;;;;;;;;;5033790;28;20405;-50
2021/10/01 11:51:22;;;;;;;3.43;1.20;;;;;;;;;;5033306;28;20497;-46
2021/10/01 11:53:48;;;;;;;4.47;1.50;;;;;;;;;;5031372;28;20560;-47
2021/10/01 11:56:14;;;;;;;1.10;1.00;;;;;;;;;;5033170;28;20449;-50
2021/10/01 11:58:40;;;;;;;4.40;1.50;;;;;;;;;;5033291;28;20452;-50
2021/10/01 12:01:11;;;;;;;1.50;1.10;;;;;;;;;;5032089;28;20771;-51
2021/10/01 12:03:47;;;;;;;2.70;1.00;;;;;;;;;;5033215;28;20801;-48
2021/10/01 12:06:18;;;;;;;2.20;1.10;;;;;;;;;;5033203;28;20399;-50
2021/10/01 12:08:52;;;;;;;3.03;1.57;;;;;;;;;;5032393;28;20765;-47
2021/10/01 12:11:24;;;;;;;4.83;1.33;;;;;;;;;;5031525;28;20450;-48
2021/10/01 12:13:50;;;;;;;3.03;1.30;;;;;;;;;;5031688;28;20532;-48
2021/10/01 12:16:16;;;;;;;1.87;1.27;;;;;;;;;;5031859;28;20515;-49
2021/10/01 12:18:55;;;;;;;2.77;1.30;;;;;;;;;;5032530;28;21115;-50
2021/10/01 12:21:25;;;;;;;2.10;1.30;;;;;;;;;;5032750;28;20398;-49
2021/10/01 12:23:56;;;;;;;2.63;1.20;;;;;;;;;;5031604;28;20464;-48
2021/10/01 12:26:32;;;;;;;2.77;1.03;;;;;;;;;;5031451;28;20933;-49
2021/10/01 12:29:03;;;;;;;2.90;1.40;;;;;;;;;;5031749;28;20412;-50
2021/10/01 12:31:31;;;;;;;1.67;1.33;;;;;;;;;;5031115;28;20405;-48
2021/10/01 12:34:02;;;;;;;1.87;1.10;;;;;;;;;;5031730;28;20537;-50
2021/10/01 12:36:29;;;;;;;2.70;1.17;;;;;;;;;;5032382;28;20497;-49
2021/10/01 12:38:56;;;;;;;4.30;1.40;;;;;;;;;;5032293;28;20464;-50
2021/10/01 12:41:22;;;;;;;2.57;1.33;;;;;;;;;;5032468;28;20460;-49
2021/10/01 12:43:55;;;;;;;3.87;1.10;;;;;;;;;;5032186;28;20426;-47
2021/10/01 12:46:34;;;;;;;2.43;1.07;;;;;;;;;;5032479;28;20885;-50
2021/10/01 12:49:19;;;;;;;1.30;1.20;;;;;;;;;;5032316;28;20400;-49
2021/10/01 12:51:46;;;;;;;2.23;1.20;;;;;;;;;;5032172;28;20745;-47
2021/10/01 12:54:22;;;;;;;1.93;1.23;;;;;;;;;;5032385;28;20427;-49
2021/10/01 12:56:48;;;;;;;2.60;1.70;;;;;;;;;;5032069;28;20408;-49
2021/10/01 12:59:34;;;;;;;1.80;1.70;;;;;;;;;;5032152;28;20450;-50
2021/10/01 13:02:06;;;;;;;2.87;1.17;;;;;;;;;;5031052;28;20424;-48
2021/10/01 13:04:44;;;;;;;1.47;1.37;;;;;;;;;;5030636;28;20423;-50
2021/10/01 13:07:29;;;;;;;2.60;1.40;;;;;;;;;;5028087;28;20421;-48
2021/10/01 13:09:55;;;;;;;5.03;1.37;;;;;;;;;;5012281;28;20406;-49
2021/10/01 13:12:27;;;;;;;1.93;1.40;;;;;;;;;;5011811;28;20480;-49
2021/10/01 13:15:09;;;;;;;4.30;1.13;;;;;;;;;;5012273;28;20423;-48
2021/10/01 13:17:35;;;;;;;1.60;1.43;;;;;;;;;;5011153;28;20761;-49
2021/10/01 13:20:01;;;;;;;3.00;1.03;;;;;;;;;;5012184;28;20458;-49
2021/10/01 13:22:47;;;;;;;2.13;1.30;;;;;;;;;;5011817;28;20867;-48
2021/10/01 13:25:13;;;;;;;4.23;1.60;;;;;;;;;;5012152;28;20902;-48
2021/10/01 13:27:39;;;;;;;2.03;1.43;;;;;;;;;;5012149;28;20412;-48
2021/10/01 13:30:05;;;;;;;2.10;1.17;;;;;;;;;;5012149;28;20414;-50
2021/10/01 13:32:31;;;;;;;6.37;1.60;;;;;;;;;;5020707;28;20515;-49
2021/10/01 13:34:57;;;;;;;2.13;1.23;;;;;;;;;;5031738;28;20840;-50
2021/10/01 13:37:23;;;;;;;3.23;1.33;;;;;;;;;;5031713;28;20803;-49
2021/10/01 13:39:49;;;;;;;5.47;1.50;;;;;;;;;;5031695;28;20464;-50
2021/10/01 13:42:15;;;;;;;2.27;1.13;;;;;;;;;;5031560;28;20401;-50
2021/10/01 13:44:41;;;;;;;1.40;1.30;;;;;;;;;;5031755;28;20410;-50
2021/10/01 13:47:07;;;;;;;2.10;1.40;;;;;;;;;;5031819;28;20406;-47
2021/10/01 13:49:33;;;;;;;1.37;1.27;;;;;;;;;;5031627;28;20417;-49
2021/10/01 13:51:59;;;;;;;3.60;1.80;;;;;;;;;;5031491;28;20409;-49
2021/10/01 13:54:24;;;;;;;5.40;1.70;;;;;;;;;;5031634;28;20422;-49
2021/10/01 13:56:51;;;;;;;4.90;1.33;;;;;;;;;;5029770;28;20413;-49
2021/10/01 13:59:16;;;;;;;1.60;1.27;;;;;;;;;;5031376;28;20591;-50
2021/10/01 14:01:42;;;;;;;4.10;1.10;;;;;;;;;;5031481;28;20485;-48
2021/10/01 14:04:08;;;;;;;2.40;1.30;;;;;;;;;;5031245;28;20426;-49
2021/10/01 14:06:34;;;;;;;1.67;1.57;;;;;;;;;;5031730;28;20405;-48
2021/10/01 14:09:00;;;;;;;3.20;1.50;;;;;;;;;;5031545;28;20495;-48
2021/10/01 14:11:26;;;;;;;1.70;1.40;;;;;;;;;;5031409;28;20471;-49
2021/10/01 14:13:52;;;;;;;5.43;1.60;;;;;;;;;;5031648;28;20431;-50
2021/10/01 14:16:18;;;;;;;1.97;1.17;;;;;;;;;;5031511;28;20973;-49
2021/10/01 14:18:44;;;;;;;4.00;1.63;;;;;;;;;;5031322;28;20449;-49
2021/10/01 14:21:10;;;;;;;3.40;1.33;;;;;;;;;;5031497;28;20908;-48
2021/10/01 14:23:36;;;;;;;2.83;1.70;;;;;;;;;;5031215;28;20420;-49
2021/10/01 14:26:02;;;;;;;3.80;1.20;;;;;;;;;;5034614;28;20478;-48
2021/10/01 14:28:28;;;;;;;3.20;1.40;;;;;;;;;;5032737;28;20521;-49
2021/10/01 14:30:54;;;;;;;3.80;1.37;;;;;;;;;;5035012;28;20395;-50
2021/10/01 14:33:20;;;;;;;4.30;1.13;;;;;;;;;;5034026;28;21026;-48
2021/10/01 14:35:46;;;;;;;2.10;1.33;;;;;;;;;;5034239;28;20457;-47
2021/10/01 14:38:13;;;;;;;5.87;1.60;;;;;;;;;;5034844;28;20395;-49
2021/10/01 14:40:40;;;;;;;2.13;1.93;;;;;;;;;;5034762;28;20400;-49
2021/10/01 14:43:06;;;;;;;2.00;1.30;;;;;;;;;;5034429;28;20557;-49
2021/10/01 14:45:33;;;;;;;1.83;1.60;;;;;;;;;;5034712;28;20472;-48
2021/10/01 14:47:59;;;;;;;1.97;1.20;;;;;;;;;;5033525;28;20919;-44
2021/10/01 14:50:25;;;;;;;2.00;1.40;;;;;;;;;;5034505;28;20490;-50
2021/10/01 14:52:51;;;;;;;1.73;1.10;;;;;;;;;;5034358;28;20902;-49
2021/10/01 14:55:17;;;;;;;1.50;1.40;;;;;;;;;;5034725;28;20413;-50
2021/10/01 14:57:43;;;;;;;2.10;1.20;;;;;;;;;;5032612;28;20383;-49
2021/10/01 15:00:09;;;;;;;1.90;1.30;;;;;;;;;;5034397;28;20545;-50
2021/10/01 15:02:35;;;;;;;1.87;1.37;;;;;;;;;;5033081;28;20461;-50
2021/10/01 15:05:01;;;;;;;7.63;2.10;;;;;;;;;;5034339;28;20946;-48
2021/10/01 15:07:27;;;;;;;2.43;1.30;;;;;;;;;;5034289;28;20417;-48
2021/10/01 15:09:53;;;;;;;3.80;1.50;;;;;;;;;;5034049;28;20374;-48
2021/10/01 15:12:20;;;;;;;2.10;1.33;;;;;;;;;;5033864;28;20772;-47
2021/10/01 15:14:46;;;;;;;3.03;1.10;;;;;;;;;;5033528;28;20476;-49
2021/10/01 15:17:12;;;;;;;2.37;1.40;;;;;;;;;;5034181;28;21022;-49
2021/10/01 15:19:39;;;;;;;3.73;1.47;;;;;;;;;;5033190;28;20937;-49
2021/10/01 15:22:05;;;;;;;5.53;1.77;;;;;;;;;;5033507;28;20420;-49
2021/10/01 15:24:31;;;;;;;2.53;1.27;;;;;;;;;;5032543;28;20491;-49
2021/10/01 15:26:57;;;;;;;1.50;1.40;;;;;;;;;;5033794;28;20399;-49
2021/10/01 15:29:23;;;;;;;2.30;1.50;;;;;;;;;;5033037;28;20808;-49
2021/10/01 15:31:50;;;;;;;3.83;1.43;;;;;;;;;;5033601;28;20385;-48
2021/10/01 15:34:16;;;;;;;2.00;1.40;;;;;;;;;;5033777;28;20791;-49
2021/10/01 15:36:42;;;;;;;1.90;1.47;;;;;;;;;;5032911;28;21262;-50
2021/10/01 15:39:07;;;;;;;1.80;1.50;;;;;;;;;;5033797;28;20483;-49
2021/10/01 15:41:33;;;;;;;2.80;1.40;;;;;;;;;;5033465;28;20410;-50
2021/10/01 15:43:59;;;;;;;1.40;1.30;;;;;;;;;;5031391;28;20416;-47
2021/10/01 15:46:25;;;;;;;2.13;1.40;;;;;;;;;;5031936;28;20875;-48
2021/10/01 15:48:51;;;;;;;2.03;1.37;;;;;;;;;;5032850;28;20410;-47
2021/10/01 15:51:17;;;;;;;1.40;1.30;;;;;;;;;;5033037;28;20534;-47
2021/10/01 15:53:43;;;;;;;1.53;1.43;;;;;;;;;;5033279;28;20407;-49
2021/10/01 15:56:09;;;;;;;2.77;1.77;;;;;;;;;;5033162;28;20410;-50
2021/10/01 15:58:35;;;;;;;9.00;1.90;;;;;;;;;;5033348;28;20453;-48
2021/10/01 16:01:01;;;;;;;2.00;1.40;;;;;;;;;;5033121;28;20782;-49
2021/10/01 16:03:27;;;;;;;2.47;1.50;;;;;;;;;;5032999;28;20392;-50
2021/10/01 16:05:59;;;;;;;2.40;1.47;;;;;;;;;;5030107;28;20510;-49
2021/10/01 16:08:25;;;;;;;1.70;1.17;;;;;;;;;;5033142;28;20766;-47
2021/10/01 16:10:51;;;;;;;1.70;1.30;;;;;;;;;;5032866;28;21515;-48
2021/10/01 16:13:17;;;;;;;3.47;1.50;;;;;;;;;;5032894;28;20442;-48
2021/10/01 16:15:43;;;;;;;5.20;1.77;;;;;;;;;;5033161;28;20786;-47
2021/10/01 16:18:09;;;;;;;4.50;1.83;;;;;;;;;;5033027;28;20935;-49
2021/10/01 16:20:35;;;;;;;8.90;1.83;;;;;;;;;;5032908;28;20464;-49
2021/10/01 16:23:03;;;;;;;3.07;1.80;;;;;;;;;;5032475;28;20429;-49